Overview Statistics Trail Chart Weather Telemetry Raw packets
 

This is the latest recevied weather packets stored in our database for station/object HA9OZD-18. If no packets are shown the sender has not sent any weather packets the latest 10 day(s).

<< 1 2 3 4 >>
Time Temp. Humidity Pressure Rain* Wind** Luminosity Snow
1788702300 18.33° C 28% 1022.6 hPa - - - -
1788698700 25° C 21% 1022.4 hPa - - - -
1788695100 19.44° C 32% 1022.5 hPa - - - -
1788691500 17.22° C 35% 1022.5 hPa - - - -
1788687899 15.56° C 42% 1022.3 hPa - - - -
1788684299 13.89° C 47% 1022.1 hPa - - - -
1788680699 12.78° C 57% 1021.7 hPa - - - -
1788677099 11.11° C 67% 1021.2 hPa - - - -
1788673498 10° C 71% 1020.7 hPa - - - -
1788669898 10° C 71% 1020.3 hPa - - - -
1788666298 10° C 69% 1020.1 hPa - - - -
1788662698 10.56° C 68% 1019.7 hPa - - - -
1788659097 11.11° C 68% 1019.5 hPa - - - -
1788655497 11.67° C 68% 1019.4 hPa - - - -
1788651897 12.22° C 66% 1019.5 hPa - - - -
1788648297 12.22° C 67% 1019.5 hPa - - - -
1788644696 12.78° C 68% 1019.4 hPa - - - -
1788641096 12.78° C 70% 1019.2 hPa - - - -
1788637497 12.78° C 62% 1018.7 hPa - - - -
1788633921 13.33° C 59% 1018 hPa - - - -
1788630578 13.33° C 66% 1017.7 hPa - - - -
1788630320 13.33° C 66% 1017.7 hPa - - - -
1788626730 14.44° C 60% 1017.1 hPa - - - -
1788626721 14.44° C 60% 1017.1 hPa - - - -
1788623120 15.56° C 48% 1016.9 hPa - - - -

* Rain since midnight (hover to see other rain measurements)
** Current wind speed in m/s (hover to see current wind gust speed)